sensor_id;sensor_type;location;lat;lon;timestamp;pressure;altitude;pressure_sealevel;temperature;humidity
51123;BME280;37162;41.724;13.346;2022-07-03T00:01:24;96848.09;;;24.70;56.77
51123;BME280;37162;41.724;13.346;2022-07-03T00:03:50;96844.28;;;24.71;56.80
51123;BME280;37162;41.724;13.346;2022-07-03T00:06:16;96849.72;;;24.71;56.93
51123;BME280;37162;41.724;13.346;2022-07-03T00:08:42;96847.00;;;24.71;56.85
51123;BME280;37162;41.724;13.346;2022-07-03T00:11:08;96846.22;;;24.70;56.96
51123;BME280;37162;41.724;13.346;2022-07-03T00:13:34;96846.22;;;24.70;56.92
51123;BME280;37162;41.724;13.346;2022-07-03T00:15:59;96846.75;;;24.67;56.84
51123;BME280;37162;41.724;13.346;2022-07-03T00:18:25;96849.19;;;24.69;56.99
51123;BME280;37162;41.724;13.346;2022-07-03T00:21:02;96841.84;;;24.69;56.70
51123;BME280;37162;41.724;13.346;2022-07-03T00:23:30;96839.94;;;24.70;56.87
51123;BME280;37162;41.724;13.346;2022-07-03T00:26:00;96836.41;;;24.69;56.99
51123;BME280;37162;41.724;13.346;2022-07-03T00:28:28;96835.59;;;24.69;57.10
51123;BME280;37162;41.724;13.346;2022-07-03T00:30:55;96836.41;;;24.69;56.92
51123;BME280;37162;41.724;13.346;2022-07-03T00:33:21;96829.91;;;24.65;56.79
51123;BME280;37162;41.724;13.346;2022-07-03T00:35:48;96825.31;;;24.66;56.70
51123;BME280;37162;41.724;13.346;2022-07-03T00:38:17;96836.41;;;24.69;57.04
51123;BME280;37162;41.724;13.346;2022-07-03T00:40:43;96828.53;;;24.68;56.97
51123;BME280;37162;41.724;13.346;2022-07-03T00:43:09;96833.69;;;24.69;56.95
51123;BME280;37162;41.724;13.346;2022-07-03T00:45:34;96824.25;;;24.62;56.97
51123;BME280;37162;41.724;13.346;2022-07-03T00:48:00;96826.94;;;24.67;57.06
51123;BME280;37162;41.724;13.346;2022-07-03T00:50:33;96820.41;;;24.68;57.04
51123;BME280;37162;41.724;13.346;2022-07-03T00:53:01;96825.31;;;24.66;57.09
51123;BME280;37162;41.724;13.346;2022-07-03T00:55:27;96832.38;;;24.67;56.98
51123;BME280;37162;41.724;13.346;2022-07-03T00:57:55;96826.94;;;24.67;57.16
51123;BME280;37162;41.724;13.346;2022-07-03T01:00:22;96832.63;;;24.65;57.22
51123;BME280;37162;41.724;13.346;2022-07-03T01:03:06;96828.03;;;24.66;57.10
51123;BME280;37162;41.724;13.346;2022-07-03T01:05:37;96818.56;;;24.58;57.21
51123;BME280;37162;41.724;13.346;2022-07-03T01:08:37;96838.91;;;24.66;57.35
51123;BME280;37162;41.724;13.346;2022-07-03T01:14:10;96834.81;;;24.63;57.60
51123;BME280;37162;41.724;13.346;2022-07-03T01:16:41;96833.19;;;24.62;57.37
51123;BME280;37162;41.724;13.346;2022-07-03T01:22:07;96828.56;;;24.63;57.50
51123;BME280;37162;41.724;13.346;2022-07-03T01:27:42;96832.41;;;24.62;57.64
51123;BME280;37162;41.724;13.346;2022-07-03T01:30:11;96836.22;;;24.61;57.52
51123;BME280;37162;41.724;13.346;2022-07-03T01:32:45;96834.31;;;24.61;57.71
51123;BME280;37162;41.724;13.346;2022-07-03T01:35:21;96834.31;;;24.61;57.37
51123;BME280;37162;41.724;13.346;2022-07-03T01:37:47;96836.22;;;24.61;57.47
51123;BME280;37162;41.724;13.346;2022-07-03T01:40:14;96821.56;;;24.57;57.63
51123;BME280;37162;41.724;13.346;2022-07-03T01:42:42;96820.19;;;24.54;57.46
51123;BME280;37162;41.724;13.346;2022-07-03T01:45:12;96835.38;;;24.60;57.59
51123;BME280;37162;41.724;13.346;2022-07-03T01:47:41;96829.94;;;24.60;57.64
51123;BME280;37162;41.724;13.346;2022-07-03T01:50:10;96822.88;;;24.59;57.56
51123;BME280;37162;41.724;13.346;2022-07-03T01:52:37;96826.41;;;24.60;57.49
51123;BME280;37162;41.724;13.346;2022-07-03T01:55:05;96820.16;;;24.59;57.62
51123;BME280;37162;41.724;13.346;2022-07-03T01:57:37;96817.19;;;24.56;57.54
51123;BME280;37162;41.724;13.346;2022-07-03T02:00:07;96789.03;;;24.41;57.42
51123;BME280;37162;41.724;13.346;2022-07-03T02:02:34;96818.25;;;24.60;57.84
51123;BME280;37162;41.724;13.346;2022-07-03T02:05:29;96822.88;;;24.59;57.57
51123;BME280;37162;41.724;13.346;2022-07-03T02:10:33;96822.88;;;24.59;57.68
51123;BME280;37162;41.724;13.346;2022-07-03T02:13:08;96824.50;;;24.60;57.78
51123;BME280;37162;41.724;13.346;2022-07-03T02:15:43;96831.84;;;24.60;57.81
51123;BME280;37162;41.724;13.346;2022-07-03T02:18:25;96831.84;;;24.60;57.58
51123;BME280;37162;41.724;13.346;2022-07-03T02:21:01;96831.03;;;24.59;57.66
51123;BME280;37162;41.724;13.346;2022-07-03T02:23:31;96830.22;;;24.59;57.65
51123;BME280;37162;41.724;13.346;2022-07-03T02:26:02;96825.59;;;24.59;57.75
51123;BME280;37162;41.724;13.346;2022-07-03T02:29:02;96812.03;;;24.59;57.69
51123;BME280;37162;41.724;13.346;2022-07-03T02:31:33;96811.22;;;24.59;57.32
51123;BME280;37162;41.724;13.346;2022-07-03T02:33:59;96819.38;;;24.59;57.80
51123;BME280;37162;41.724;13.346;2022-07-03T02:36:31;96814.47;;;24.56;57.64
51123;BME280;37162;41.724;13.346;2022-07-03T02:38:58;96824.78;;;24.59;57.84
51123;BME280;37162;41.724;13.346;2022-07-03T02:41:42;96823.69;;;24.60;57.61
51123;BME280;37162;41.724;13.346;2022-07-03T02:44:23;96812.03;;;24.59;57.60
51123;BME280;37162;41.724;13.346;2022-07-03T02:46:59;96816.66;;;24.59;57.65
51123;BME280;37162;41.724;13.346;2022-07-03T02:49:31;96822.88;;;24.59;57.72
51123;BME280;37162;41.724;13.346;2022-07-03T02:52:13;96815.84;;;24.58;57.73
51123;BME280;37162;41.724;13.346;2022-07-03T02:54:44;96819.38;;;24.59;57.73
51123;BME280;37162;41.724;13.346;2022-07-03T02:57:13;96818.03;;;24.56;57.73
51123;BME280;37162;41.724;13.346;2022-07-03T03:04:55;96823.19;;;24.58;57.72
51123;BME280;37162;41.724;13.346;2022-07-03T03:07:27;96829.41;;;24.58;57.63
51123;BME280;37162;41.724;13.346;2022-07-03T03:09:55;96832.94;;;24.59;57.89
51123;BME280;37162;41.724;13.346;2022-07-03T03:12:37;96831.31;;;24.58;57.93
51123;BME280;37162;41.724;13.346;2022-07-03T03:15:04;96843.00;;;24.58;57.93
51123;BME280;37162;41.724;13.346;2022-07-03T03:17:41;96837.56;;;24.58;58.00
51123;BME280;37162;41.724;13.346;2022-07-03T03:20:08;96841.09;;;24.59;57.87
51123;BME280;37162;41.724;13.346;2022-07-03T03:25:24;96835.94;;;24.57;58.00
51123;BME280;37162;41.724;13.346;2022-07-03T03:27:49;96834.03;;;24.58;58.05
51123;BME280;37162;41.724;13.346;2022-07-03T03:30:15;96837.06;;;24.56;57.97
51123;BME280;37162;41.724;13.346;2022-07-03T03:32:41;96834.84;;;24.58;57.87
51123;BME280;37162;41.724;13.346;2022-07-03T03:35:07;96834.88;;;24.53;57.94
51123;BME280;37162;41.724;13.346;2022-07-03T03:37:33;96839.47;;;24.58;57.88
51123;BME280;37162;41.724;13.346;2022-07-03T03:40:01;96836.75;;;24.58;57.91
51123;BME280;37162;41.724;13.346;2022-07-03T03:42:26;96833.22;;;24.57;57.90
51123;BME280;37162;41.724;13.346;2022-07-03T03:44:52;96840.28;;;24.58;58.14
51123;BME280;37162;41.724;13.346;2022-07-03T03:47:17;96837.56;;;24.58;58.05
51123;BME280;37162;41.724;13.346;2022-07-03T03:49:44;96836.75;;;24.58;57.86
51123;BME280;37162;41.724;13.346;2022-07-03T03:52:09;96839.19;;;24.59;57.91
51123;BME280;37162;41.724;13.346;2022-07-03T03:54:35;96840.84;;;24.55;58.17
51123;BME280;37162;41.724;13.346;2022-07-03T03:57:18;96842.19;;;24.58;58.20
51123;BME280;37162;41.724;13.346;2022-07-03T03:59:44;96834.34;;;24.56;57.93
51123;BME280;37162;41.724;13.346;2022-07-03T04:02:10;96837.84;;;24.57;58.00
51123;BME280;37162;41.724;13.346;2022-07-03T04:04:35;96837.56;;;24.58;58.04
51123;BME280;37162;41.724;13.346;2022-07-03T04:07:00;96835.13;;;24.57;58.01
51123;BME280;37162;41.724;13.346;2022-07-03T04:09:26;96838.66;;;24.57;58.29
51123;BME280;37162;41.724;13.346;2022-07-03T04:11:51;96835.13;;;24.57;58.42
51123;BME280;37162;41.724;13.346;2022-07-03T04:14:17;96838.66;;;24.57;57.96
51123;BME280;37162;41.724;13.346;2022-07-03T04:16:42;96824.28;;;24.57;57.91
51123;BME280;37162;41.724;13.346;2022-07-03T04:19:07;96811.28;;;24.48;58.09
51123;BME280;37162;41.724;13.346;2022-07-03T04:21:33;96826.69;;;24.58;58.16
51123;BME280;37162;41.724;13.346;2022-07-03T04:23:58;96826.44;;;24.55;55.73
51123;BME280;37162;41.724;13.346;2022-07-03T04:26:24;96831.31;;;24.58;57.32
51123;BME280;37162;41.724;13.346;2022-07-03T04:28:49;96830.53;;;24.57;56.54
51123;BME280;37162;41.724;13.346;2022-07-03T04:31:15;96831.31;;;24.58;57.17
51123;BME280;37162;41.724;13.346;2022-07-03T04:33:40;96829.13;;;24.60;57.58
51123;BME280;37162;41.724;13.346;2022-07-03T04:36:05;96829.13;;;24.60;57.77
51123;BME280;37162;41.724;13.346;2022-07-03T04:38:31;96829.69;;;24.62;58.01
51123;BME280;37162;41.724;13.346;2022-07-03T04:40:57;96828.88;;;24.61;58.07
51123;BME280;37162;41.724;13.346;2022-07-03T04:43:22;96826.97;;;24.62;57.94
51123;BME280;37162;41.724;13.346;2022-07-03T04:45:48;96832.41;;;24.62;58.08
51123;BME280;37162;41.724;13.346;2022-07-03T04:48:14;96830.50;;;24.62;58.02
51123;BME280;37162;41.724;13.346;2022-07-03T04:50:40;96829.38;;;24.63;57.96
51123;BME280;37162;41.724;13.346;2022-07-03T04:53:05;96830.19;;;24.64;57.95
51123;BME280;37162;41.724;13.346;2022-07-03T04:55:31;96832.91;;;24.64;58.02
51123;BME280;37162;41.724;13.346;2022-07-03T04:57:56;96833.72;;;24.64;57.86
51123;BME280;37162;41.724;13.346;2022-07-03T05:00:22;96839.97;;;24.65;57.94
51123;BME280;37162;41.724;13.346;2022-07-03T05:02:47;96841.63;;;24.66;58.10
51123;BME280;37162;41.724;13.346;2022-07-03T05:05:12;96835.34;;;24.65;58.10
51123;BME280;37162;41.724;13.346;2022-07-03T05:07:38;96838.06;;;24.65;58.10
51123;BME280;37162;41.724;13.346;2022-07-03T05:10:03;96833.47;;;24.66;58.00
51123;BME280;37162;41.724;13.346;2022-07-03T05:12:29;96841.63;;;24.66;57.87
51123;BME280;37162;41.724;13.346;2022-07-03T05:14:54;96840.50;;;24.67;58.03
51123;BME280;37162;41.724;13.346;2022-07-03T05:17:20;96832.13;;;24.58;58.06
51123;BME280;37162;41.724;13.346;2022-07-03T05:19:45;96832.66;;;24.60;57.86
51123;BME280;37162;41.724;13.346;2022-07-03T05:22:11;96847.56;;;24.68;57.99
51123;BME280;37162;41.724;13.346;2022-07-03T05:24:36;96843.75;;;24.69;58.10
51123;BME280;37162;41.724;13.346;2022-07-03T05:27:02;96844.56;;;24.69;58.15
51123;BME280;37162;41.724;13.346;2022-07-03T05:29:27;96844.56;;;24.69;57.93
51123;BME280;37162;41.724;13.346;2022-07-03T05:31:53;96850.81;;;24.70;58.07
51123;BME280;37162;41.724;13.346;2022-07-03T05:34:18;96861.66;;;24.70;57.98
51123;BME280;37162;41.724;13.346;2022-07-03T05:36:44;96860.84;;;24.69;58.29
51123;BME280;37162;41.724;13.346;2022-07-03T05:39:09;96864.38;;;24.70;58.13
51123;BME280;37162;41.724;13.346;2022-07-03T05:41:53;96859.78;;;24.70;58.22
51123;BME280;37162;41.724;13.346;2022-07-03T05:44:19;96863.31;;;24.71;58.31
51123;BME280;37162;41.724;13.346;2022-07-03T05:46:44;96861.41;;;24.71;58.09
51123;BME280;37162;41.724;13.346;2022-07-03T05:49:12;96866.03;;;24.71;58.14
51123;BME280;37162;41.724;13.346;2022-07-03T05:51:38;96870.38;;;24.72;57.94
51123;BME280;37162;41.724;13.346;2022-07-03T05:54:03;96857.06;;;24.70;58.00
51123;BME280;37162;41.724;13.346;2022-07-03T05:56:29;96858.41;;;24.73;57.88
51123;BME280;37162;41.724;13.346;2022-07-03T05:58:54;96863.53;;;24.74;57.93
51123;BME280;37162;41.724;13.346;2022-07-03T06:01:20;96861.13;;;24.73;58.02
51123;BME280;37162;41.724;13.346;2022-07-03T06:03:45;96872.53;;;24.75;57.91
51123;BME280;37162;41.724;13.346;2022-07-03T06:06:10;96869.81;;;24.75;57.99
51123;BME280;37162;41.724;13.346;2022-07-03T06:08:36;96864.38;;;24.75;57.94
51123;BME280;37162;41.724;13.346;2022-07-03T06:11:01;96875.25;;;24.75;57.93
51123;BME280;37162;41.724;13.346;2022-07-03T06:13:27;96869.81;;;24.75;57.62
51123;BME280;37162;41.724;13.346;2022-07-03T06:15:52;96877.69;;;24.77;57.87
51123;BME280;37162;41.724;13.346;2022-07-03T06:18:18;96872.25;;;24.77;57.96
51123;BME280;37162;41.724;13.346;2022-07-03T06:20:43;96878.50;;;24.77;58.00
51123;BME280;37162;41.724;13.346;2022-07-03T06:23:08;96880.41;;;24.77;57.82
51123;BME280;37162;41.724;13.346;2022-07-03T06:25:34;96877.69;;;24.77;57.55
51123;BME280;37162;41.724;13.346;2022-07-03T06:27:59;96882.03;;;24.78;57.71
51123;BME280;37162;41.724;13.346;2022-07-03T06:30:25;96880.09;;;24.78;57.57
51123;BME280;37162;41.724;13.346;2022-07-03T06:32:50;96882.03;;;24.78;57.84
51123;BME280;37162;41.724;13.346;2022-07-03T06:35:16;96883.63;;;24.79;57.57
51123;BME280;37162;41.724;13.346;2022-07-03T06:37:41;96892.06;;;24.77;57.76
51123;BME280;37162;41.724;13.346;2022-07-03T06:40:07;96893.69;;;24.78;58.02
51123;BME280;37162;41.724;13.346;2022-07-03T06:42:33;96889.34;;;24.77;57.87
51123;BME280;37162;41.724;13.346;2022-07-03T06:44:58;96894.78;;;24.77;57.83
51123;BME280;37162;41.724;13.346;2022-07-03T06:47:23;96890.97;;;24.78;57.97
51123;BME280;37162;41.724;13.346;2022-07-03T06:49:49;96890.16;;;24.78;58.01
51123;BME280;37162;41.724;13.346;2022-07-03T06:52:14;96872.53;;;24.70;56.84
51123;BME280;37162;41.724;13.346;2022-07-03T06:54:40;96886.28;;;24.89;56.83
51123;BME280;37162;41.724;13.346;2022-07-03T06:57:12;96888.72;;;24.95;57.60
51123;BME280;37162;41.724;13.346;2022-07-03T06:59:37;96887.31;;;25.03;55.21
51123;BME280;37162;41.724;13.346;2022-07-03T07:02:03;96889.16;;;25.18;54.74
51123;BME280;37162;41.724;13.346;2022-07-03T07:04:28;96884.66;;;25.37;55.78
51123;BME280;37162;41.724;13.346;2022-07-03T07:06:54;96878.66;;;25.35;56.60
51123;BME280;37162;41.724;13.346;2022-07-03T07:09:19;96878.41;;;25.37;56.51
51123;BME280;37162;41.724;13.346;2022-07-03T07:11:44;96879.25;;;25.32;55.97
51123;BME280;37162;41.724;13.346;2022-07-03T07:14:10;96864.03;;;25.26;56.51
51123;BME280;37162;41.724;13.346;2022-07-03T07:16:35;96872.19;;;25.26;56.59
51123;BME280;37162;41.724;13.346;2022-07-03T07:19:01;96864.63;;;25.23;56.37
51123;BME280;37162;41.724;13.346;2022-07-03T07:21:26;96868.72;;;25.20;56.81
51123;BME280;37162;41.724;13.346;2022-07-03T07:23:52;96872.03;;;25.17;56.75
51123;BME280;37162;41.724;13.346;2022-07-03T07:26:18;96867.94;;;25.15;56.98
51123;BME280;37162;41.724;13.346;2022-07-03T07:28:45;96869.03;;;25.14;57.06
51123;BME280;37162;41.724;13.346;2022-07-03T07:31:11;96862.25;;;25.11;56.99
51123;BME280;37162;41.724;13.346;2022-07-03T07:33:36;96863.06;;;25.12;57.00
51123;BME280;37162;41.724;13.346;2022-07-03T07:36:03;96863.66;;;25.09;57.06
51123;BME280;37162;41.724;13.346;2022-07-03T07:38:29;96859.03;;;25.09;57.03
51123;BME280;37162;41.724;13.346;2022-07-03T07:40:54;96859.53;;;25.11;57.00
51123;BME280;37162;41.724;13.346;2022-07-03T07:43:20;96855.50;;;25.09;57.12
51123;BME280;37162;41.724;13.346;2022-07-03T07:45:45;96854.69;;;25.08;57.03
51123;BME280;37162;41.724;13.346;2022-07-03T07:48:11;96869.31;;;25.12;56.91
51123;BME280;37162;41.724;13.346;2022-07-03T07:50:36;96866.06;;;25.10;57.02
51123;BME280;37162;41.724;13.346;2022-07-03T07:53:02;96862.25;;;25.11;57.00
51123;BME280;37162;41.724;13.346;2022-07-03T07:55:27;96873.13;;;25.11;57.05
51123;BME280;37162;41.724;13.346;2022-07-03T07:57:52;96869.59;;;25.11;57.27
51123;BME280;37162;41.724;13.346;2022-07-03T08:00:19;96866.88;;;25.11;57.17
51123;BME280;37162;41.724;13.346;2022-07-03T08:02:45;96866.88;;;25.11;56.76
51123;BME280;37162;41.724;13.346;2022-07-03T08:05:29;96862.56;;;25.10;57.12
51123;BME280;37162;41.724;13.346;2022-07-03T08:08:13;96867.69;;;25.11;57.14
51123;BME280;37162;41.724;13.346;2022-07-03T08:10:40;96874.75;;;25.12;56.87
51123;BME280;37162;41.724;13.346;2022-07-03T08:13:07;96866.38;;;25.09;57.23
51123;BME280;37162;41.724;13.346;2022-07-03T08:15:33;96869.84;;;25.14;57.06
51123;BME280;37162;41.724;13.346;2022-07-03T08:17:59;96873.38;;;25.15;57.02
51123;BME280;37162;41.724;13.346;2022-07-03T08:20:24;96874.19;;;25.15;56.94
51123;BME280;37162;41.724;13.346;2022-07-03T08:22:50;96867.66;;;25.16;56.95
51123;BME280;37162;41.724;13.346;2022-07-03T08:25:15;96873.09;;;25.16;57.11
51123;BME280;37162;41.724;13.346;2022-07-03T08:27:41;96871.19;;;25.17;57.00
51123;BME280;37162;41.724;13.346;2022-07-03T08:30:07;96860.09;;;25.13;56.91
51123;BME280;37162;41.724;13.346;2022-07-03T08:32:32;96870.91;;;25.18;57.06
51123;BME280;37162;41.724;13.346;2022-07-03T08:34:57;96873.34;;;25.20;57.09
51123;BME280;37162;41.724;13.346;2022-07-03T08:37:23;96869.53;;;25.21;56.90
51123;BME280;37162;41.724;13.346;2022-07-03T08:39:48;96873.06;;;25.21;56.90
51123;BME280;37162;41.724;13.346;2022-07-03T08:42:15;96873.59;;;25.23;56.89
51123;BME280;37162;41.724;13.346;2022-07-03T08:44:43;96876.31;;;25.23;56.79
51123;BME280;37162;41.724;13.346;2022-07-03T08:47:11;96871.38;;;25.26;56.63
51123;BME280;37162;41.724;13.346;2022-07-03T08:49:37;96861.63;;;25.24;56.94
51123;BME280;37162;41.724;13.346;2022-07-03T08:52:03;96865.69;;;25.27;56.76
51123;BME280;37162;41.724;13.346;2022-07-03T08:54:33;96870.84;;;25.29;56.82
51123;BME280;37162;41.724;13.346;2022-07-03T08:57:00;96864.28;;;25.30;56.66
51123;BME280;37162;41.724;13.346;2022-07-03T08:59:32;96859.41;;;25.32;56.79
51123;BME280;37162;41.724;13.346;2022-07-03T09:02:00;96860.22;;;25.32;56.31
51123;BME280;37162;41.724;13.346;2022-07-03T09:04:26;96848.81;;;25.25;56.71
51123;BME280;37162;41.724;13.346;2022-07-03T09:06:51;96864.25;;;25.35;56.77
51123;BME280;37162;41.724;13.346;2022-07-03T09:09:17;96870.22;;;25.37;56.56
51123;BME280;37162;41.724;13.346;2022-07-03T09:11:43;96865.59;;;25.37;56.57
51123;BME280;37162;41.724;13.346;2022-07-03T09:14:09;96862.34;;;25.35;56.39
